createdAt,value
2019-04-28T00:00:05.542Z,1007.33
2019-04-28T00:01:05.967Z,1007.27
2019-04-28T00:02:06.104Z,1007.23
2019-04-28T00:03:06.420Z,1007.26
2019-04-28T00:04:06.900Z,1007.11
2019-04-28T00:05:07.181Z,1007.21
2019-04-28T00:06:07.513Z,1007.17
2019-04-28T00:07:07.784Z,1007.21
2019-04-28T00:08:08.037Z,1007.20
2019-04-28T00:09:08.287Z,1007.19
2019-04-28T00:10:08.654Z,1007.19
2019-04-28T00:11:08.930Z,1007.19
2019-04-28T00:12:09.215Z,1007.23
2019-04-28T00:13:10.961Z,1007.28
2019-04-28T00:14:11.846Z,1007.23
2019-04-28T00:15:10.865Z,1007.23
2019-04-28T00:16:11.576Z,1007.22
2019-04-28T00:17:11.180Z,1007.13
2019-04-28T00:18:11.956Z,1007.20
2019-04-28T00:19:11.478Z,1007.18
2019-04-28T00:20:12.799Z,1007.23
2019-04-28T00:21:12.037Z,1007.26
2019-04-28T00:22:11.808Z,1007.16
2019-04-28T00:23:11.946Z,1007.20
2019-04-28T00:24:12.191Z,1007.27
2019-04-28T00:25:12.575Z,1007.17
2019-04-28T00:26:12.809Z,1007.21
2019-04-28T00:27:12.933Z,1007.20
2019-04-28T00:28:13.264Z,1007.20
2019-04-28T00:29:13.810Z,1007.24
2019-04-28T00:30:13.801Z,1007.24
2019-04-28T00:31:13.833Z,1007.22
2019-04-28T00:32:14.098Z,1007.21
2019-04-28T00:33:14.106Z,1007.21
2019-04-28T00:34:14.339Z,1007.18
2019-04-28T00:35:14.921Z,1007.17
2019-04-28T00:36:14.922Z,1007.20
2019-04-28T00:37:15.184Z,1007.16
2019-04-28T00:38:15.514Z,1007.19
2019-04-28T00:39:15.762Z,1007.18
2019-04-28T00:40:16.349Z,1007.16
2019-04-28T00:41:16.210Z,1007.19
2019-04-28T00:42:16.771Z,1007.19
2019-04-28T00:43:16.671Z,1007.21
2019-04-28T00:44:16.918Z,1007.25
2019-04-28T00:45:17.324Z,1007.19
2019-04-28T00:46:17.852Z,1007.16
2019-04-28T00:47:17.672Z,1007.24
2019-04-28T00:48:17.941Z,1007.23
2019-04-28T00:50:18.176Z,1007.35
2019-04-28T00:51:18.445Z,1007.24
2019-04-28T00:52:18.726Z,1007.23
2019-04-28T00:53:20.694Z,1007.23
2019-04-28T00:54:19.395Z,1007.26
2019-04-28T00:55:21.008Z,1007.20
2019-04-28T00:56:21.735Z,1007.24
2019-04-28T00:57:21.081Z,1007.24
2019-04-28T00:58:20.976Z,1007.29
2019-04-28T00:59:21.721Z,1007.20
2019-04-28T01:00:23.176Z,1007.31
2019-04-28T01:01:21.800Z,1007.29
2019-04-28T01:02:21.961Z,1007.27
2019-04-28T01:03:23.924Z,1007.30
2019-04-28T01:04:22.728Z,1007.30
2019-04-28T01:05:22.881Z,1007.31
2019-04-28T01:06:23.398Z,1007.22
2019-04-28T01:07:23.217Z,1007.28
2019-04-28T01:08:23.735Z,1007.27
2019-04-28T01:09:23.591Z,1007.34
2019-04-28T01:10:23.828Z,1007.32
2019-04-28T01:11:24.169Z,1007.31
2019-04-28T01:12:24.181Z,1007.31
2019-04-28T01:13:24.542Z,1007.23
2019-04-28T01:15:25.073Z,1007.27
2019-04-28T01:16:25.138Z,1007.29
2019-04-28T01:17:25.187Z,1007.31
2019-04-28T01:18:25.671Z,1007.29
2019-04-28T01:19:25.595Z,1007.27
2019-04-28T01:20:26.139Z,1007.27
2019-04-28T01:21:26.645Z,1007.32
2019-04-28T01:22:26.765Z,1007.26
2019-04-28T01:23:27.231Z,1007.24
2019-04-28T01:24:27.494Z,1007.34
2019-04-28T01:25:28.016Z,1007.31
2019-04-28T01:26:29.904Z,1007.31
2019-04-28T01:27:27.792Z,1007.33
2019-04-28T01:28:29.765Z,1007.32
2019-04-28T01:29:29.481Z,1007.23
2019-04-28T01:30:29.929Z,1007.34
2019-04-28T01:31:29.480Z,1007.30
2019-04-28T01:32:30.174Z,1007.33
2019-04-28T01:33:29.593Z,1007.32
2019-04-28T01:34:30.131Z,1007.30
2019-04-28T01:35:30.277Z,1007.28
2019-04-28T01:36:30.758Z,1007.27
2019-04-28T01:37:30.967Z,1007.36
2019-04-28T01:38:31.347Z,1007.25
2019-04-28T01:39:31.750Z,1007.26
2019-04-28T01:40:32.015Z,1007.30
2019-04-28T01:41:32.042Z,1007.39
2019-04-28T01:42:31.793Z,1007.26
2019-04-28T01:43:32.090Z,1007.27
2019-04-28T01:44:32.343Z,1007.29
2019-04-28T01:45:32.785Z,1007.25
2019-04-28T01:46:33.046Z,1007.24
2019-04-28T01:47:33.498Z,1007.20
2019-04-28T01:48:33.585Z,1007.26
2019-04-28T01:49:34.032Z,1007.35
2019-04-28T01:50:34.284Z,1007.38
2019-04-28T01:51:34.709Z,1007.34
2019-04-28T01:52:34.999Z,1007.35
2019-04-28T01:53:35.554Z,1007.31
2019-04-28T01:54:35.309Z,1007.33
2019-04-28T01:55:35.788Z,1007.41
2019-04-28T01:56:36.032Z,1007.32
2019-04-28T01:57:36.408Z,1007.40
2019-04-28T01:58:36.689Z,1007.36
2019-04-28T01:59:37.085Z,1007.36
2019-04-28T02:00:37.389Z,1007.39
2019-04-28T02:01:39.507Z,1007.41
2019-04-28T02:02:38.134Z,1007.36
2019-04-28T02:03:40.294Z,1007.46
2019-04-28T02:04:40.175Z,1007.42
2019-04-28T02:05:40.510Z,1007.46
2019-04-28T02:06:39.924Z,1007.41
2019-04-28T02:07:40.714Z,1007.45
2019-04-28T02:08:40.111Z,1007.44
2019-04-28T02:09:40.352Z,1007.50
2019-04-28T02:10:40.641Z,1007.49
2019-04-28T02:11:41.240Z,1007.47
2019-04-28T02:12:41.279Z,1007.47
2019-04-28T02:13:41.525Z,1007.53
2019-04-28T02:14:41.745Z,1007.43
2019-04-28T02:15:42.167Z,1007.46
2019-04-28T02:16:42.226Z,1007.45
2019-04-28T02:17:42.676Z,1007.41
2019-04-28T02:18:42.914Z,1007.43
2019-04-28T02:19:43.171Z,1007.51
2019-04-28T02:20:43.594Z,1007.48
2019-04-28T02:21:43.653Z,1007.44
2019-04-28T02:22:43.879Z,1007.40
2019-04-28T02:23:44.330Z,1007.43
2019-04-28T02:24:44.734Z,1007.46
2019-04-28T02:25:44.963Z,1007.44
2019-04-28T02:26:45.182Z,1007.45
2019-04-28T02:27:45.549Z,1007.51
2019-04-28T02:28:45.797Z,1007.52
2019-04-28T02:29:46.072Z,1007.50
2019-04-28T02:30:50.394Z,1007.55
2019-04-28T02:31:46.725Z,1007.52
2019-04-28T02:32:47.069Z,1007.52
2019-04-28T02:33:47.539Z,1007.48
2019-04-28T02:34:49.858Z,1007.56
2019-04-28T02:35:48.074Z,1007.50
2019-04-28T02:36:50.651Z,1007.50
2019-04-28T02:37:50.294Z,1007.41
2019-04-28T02:38:51.318Z,1007.49
2019-04-28T02:39:50.547Z,1007.56
2019-04-28T02:40:50.361Z,1007.49
2019-04-28T02:41:51.206Z,1007.50
2019-04-28T02:42:52.221Z,1007.46
2019-04-28T02:43:51.014Z,1007.50
2019-04-28T02:44:50.678Z,1007.58
2019-04-28T02:45:53.505Z,1007.52
2019-04-28T02:46:51.173Z,1007.55
2019-04-28T02:47:52.294Z,1007.59
2019-04-28T02:48:54.030Z,1007.47
2019-04-28T02:49:52.028Z,1007.56
2019-04-28T02:50:52.239Z,1007.51
2019-04-28T02:52:52.574Z,1007.52
2019-04-28T02:53:52.882Z,1007.54
2019-04-28T02:54:53.179Z,1007.46
2019-04-28T02:55:53.675Z,1007.48
2019-04-28T02:56:54.011Z,1007.49
2019-04-28T02:57:54.221Z,1007.43
2019-04-28T02:58:54.568Z,1007.51
2019-04-28T02:59:54.926Z,1007.48
2019-04-28T03:01:06.628Z,1007.52
2019-04-28T03:01:55.509Z,1007.43
2019-04-28T03:02:55.993Z,1007.54
2019-04-28T03:03:55.875Z,1007.50
2019-04-28T03:04:56.101Z,1007.52
2019-04-28T03:05:56.703Z,1007.53
2019-04-28T03:06:56.454Z,1007.48
2019-04-28T03:08:57.074Z,1007.44
2019-04-28T03:09:57.536Z,1007.46
2019-04-28T03:11:00.621Z,1007.56
2019-04-28T03:11:58.061Z,1007.47
2019-04-28T03:13:01.212Z,1007.49
2019-04-28T03:14:00.997Z,1007.53
2019-04-28T03:15:00.568Z,1007.56
2019-04-28T03:16:01.634Z,1007.45
2019-04-28T03:17:00.872Z,1007.52
2019-04-28T03:18:01.786Z,1007.58
2019-04-28T03:19:01.200Z,1007.50
2019-04-28T03:20:01.254Z,1007.55
2019-04-28T03:21:01.524Z,1007.55
2019-04-28T03:22:01.487Z,1007.52
2019-04-28T03:23:01.406Z,1007.55
2019-04-28T03:24:01.683Z,1007.53
2019-04-28T03:25:01.781Z,1007.68
2019-04-28T03:26:01.785Z,1007.63
2019-04-28T03:27:03.638Z,1007.62
2019-04-28T03:28:02.307Z,1007.64
2019-04-28T03:29:02.133Z,1007.64
2019-04-28T03:30:02.398Z,1007.61
2019-04-28T03:31:13.123Z,1007.67
2019-04-28T03:32:22.065Z,1007.66
2019-04-28T03:33:11.101Z,1007.59
2019-04-28T03:34:04.372Z,1007.63
2019-04-28T03:35:04.119Z,1007.65
2019-04-28T03:36:07.899Z,1007.71
2019-04-28T03:37:03.433Z,1007.73
2019-04-28T03:38:04.022Z,1007.73
2019-04-28T03:40:04.132Z,1007.72
2019-04-28T03:41:04.310Z,1007.75
2019-04-28T03:42:04.517Z,1007.72
2019-04-28T03:43:04.602Z,1007.72
2019-04-28T03:44:04.585Z,1007.71
2019-04-28T03:45:04.838Z,1007.76
2019-04-28T03:46:05.239Z,1007.67
2019-04-28T03:47:05.592Z,1007.74
2019-04-28T03:48:06.083Z,1007.68
2019-04-28T03:49:06.486Z,1007.72
2019-04-28T03:50:06.786Z,1007.73
2019-04-28T03:51:07.040Z,1007.79
2019-04-28T03:52:07.291Z,1007.67
2019-04-28T03:53:07.747Z,1007.72
2019-04-28T03:54:10.271Z,1007.66
2019-04-28T03:55:08.265Z,1007.64
2019-04-28T03:56:11.187Z,1007.67
2019-04-28T03:57:11.326Z,1007.73
2019-04-28T03:58:10.358Z,1007.71
2019-04-28T03:59:10.334Z,1007.78
2019-04-28T04:01:10.778Z,1007.75
2019-04-28T04:02:11.511Z,1007.77
2019-04-28T04:03:11.171Z,1007.66
2019-04-28T04:04:11.370Z,1007.72
2019-04-28T04:05:11.427Z,1007.73
2019-04-28T04:06:11.665Z,1007.78
2019-04-28T04:07:12.148Z,1007.76
2019-04-28T04:08:12.497Z,1007.79
2019-04-28T04:09:12.754Z,1007.74
2019-04-28T04:10:13.013Z,1007.72
2019-04-28T04:11:13.052Z,1007.73
2019-04-28T04:12:13.474Z,1007.76
2019-04-28T04:13:13.634Z,1007.78
2019-04-28T04:14:13.917Z,1007.80
2019-04-28T04:15:14.086Z,1007.83
2019-04-28T04:16:14.335Z,1007.81
2019-04-28T04:17:14.539Z,1007.77
2019-04-28T04:18:15.088Z,1007.80
2019-04-28T04:19:15.008Z,1007.91
2019-04-28T04:20:15.611Z,1007.83
2019-04-28T04:21:15.613Z,1007.98
2019-04-28T04:22:15.852Z,1007.90
2019-04-28T04:23:16.101Z,1007.90
2019-04-28T04:24:16.342Z,1007.86
2019-04-28T04:25:17.229Z,1007.90
2019-04-28T04:26:17.048Z,1007.89
2019-04-28T04:27:17.321Z,1007.93
2019-04-28T04:28:20.248Z,1007.91
2019-04-28T04:29:17.819Z,1007.84
2019-04-28T04:30:20.633Z,1007.95
2019-04-28T04:31:20.004Z,1007.87
2019-04-28T04:32:24.198Z,1007.95
2019-04-28T04:33:20.997Z,1007.99
2019-04-28T04:34:20.236Z,1008.00
2019-04-28T04:35:21.437Z,1008.00
2019-04-28T04:36:21.132Z,1007.98
2019-04-28T04:37:20.600Z,1008.04
2019-04-28T04:38:21.758Z,1008.11
2019-04-28T04:39:20.892Z,1008.15
2019-04-28T04:40:21.286Z,1007.99
2019-04-28T04:41:21.719Z,1008.11
2019-04-28T04:42:21.979Z,1008.15
2019-04-28T04:43:23.515Z,1008.10
2019-04-28T04:44:22.614Z,1008.12
2019-04-28T04:45:22.871Z,1008.16
2019-04-28T04:46:23.151Z,1008.16
2019-04-28T04:47:23.830Z,1008.14
2019-04-28T04:48:23.877Z,1008.23
2019-04-28T04:49:23.821Z,1008.15
2019-04-28T04:50:24.065Z,1008.20
2019-04-28T04:51:24.387Z,1008.20
2019-04-28T04:52:24.622Z,1008.23
2019-04-28T04:53:24.866Z,1008.23
2019-04-28T04:54:25.101Z,1008.26
2019-04-28T04:55:25.407Z,1008.26
2019-04-28T04:56:25.953Z,1008.27
2019-04-28T04:57:25.924Z,1008.28
2019-04-28T04:58:26.158Z,1008.27
2019-04-28T04:59:26.649Z,1008.28
2019-04-28T05:00:26.827Z,1008.20
2019-04-28T05:01:27.221Z,1008.21
2019-04-28T05:02:32.210Z,1008.25
2019-04-28T05:03:29.715Z,1008.30
2019-04-28T05:04:29.692Z,1008.29
2019-04-28T05:05:28.192Z,1008.29
2019-04-28T05:06:29.790Z,1008.28
2019-04-28T05:07:29.712Z,1008.28
2019-04-28T05:08:30.130Z,1008.26
2019-04-28T05:09:31.127Z,1008.27
2019-04-28T05:10:30.396Z,1008.30
2019-04-28T05:11:30.076Z,1008.37
2019-04-28T05:12:30.641Z,1008.36
2019-04-28T05:13:30.540Z,1008.27
2019-04-28T05:14:30.892Z,1008.28
2019-04-28T05:15:31.307Z,1008.30
2019-04-28T05:16:31.220Z,1008.31
2019-04-28T05:17:31.400Z,1008.37
2019-04-28T05:18:31.636Z,1008.35
2019-04-28T05:19:31.955Z,1008.36
2019-04-28T05:20:32.171Z,1008.35
2019-04-28T05:21:33.426Z,1008.31
2019-04-28T05:22:32.505Z,1008.32
2019-04-28T05:23:33.046Z,1008.33
2019-04-28T05:24:33.215Z,1008.42
2019-04-28T05:25:33.842Z,1008.34
2019-04-28T05:26:33.905Z,1008.33
2019-04-28T05:27:34.376Z,1008.34
2019-04-28T05:28:36.871Z,1008.40
2019-04-28T05:29:34.928Z,1008.38
2019-04-28T05:30:39.775Z,1008.30
2019-04-28T05:31:35.885Z,1008.29
2019-04-28T05:32:43.150Z,1008.30
2019-04-28T05:33:36.282Z,1008.30
2019-04-28T05:34:41.514Z,1008.29
2019-04-28T05:35:36.741Z,1008.30
2019-04-28T05:36:42.509Z,1008.33
2019-04-28T05:37:37.651Z,1008.35
2019-04-28T05:38:37.853Z,1008.29
2019-04-28T05:39:40.307Z,1008.32
2019-04-28T05:40:39.841Z,1008.40
2019-04-28T05:41:39.999Z,1008.39
2019-04-28T05:42:39.414Z,1008.37
2019-04-28T05:43:40.440Z,1008.36
2019-04-28T05:44:40.756Z,1008.35
2019-04-28T05:45:39.878Z,1008.40
2019-04-28T05:46:40.370Z,1008.39
2019-04-28T05:47:40.862Z,1008.44
2019-04-28T05:48:40.971Z,1008.46
2019-04-28T05:49:40.738Z,1008.45
2019-04-28T05:50:41.175Z,1008.43
2019-04-28T05:51:41.384Z,1008.37
2019-04-28T05:52:41.282Z,1008.38
2019-04-28T05:53:41.479Z,1008.44
2019-04-28T05:54:41.644Z,1008.44
2019-04-28T05:55:41.977Z,1008.43
2019-04-28T05:56:42.151Z,1008.42
2019-04-28T05:57:42.769Z,1008.44
2019-04-28T05:58:43.153Z,1008.48
2019-04-28T05:59:43.298Z,1008.47
2019-04-28T06:00:43.714Z,1008.46
2019-04-28T06:01:43.456Z,1008.47
2019-04-28T06:02:54.138Z,1008.47
2019-04-28T06:03:44.279Z,1008.48
2019-04-28T06:04:44.665Z,1008.49
2019-04-28T06:05:45.161Z,1008.49
2019-04-28T06:06:44.937Z,1008.48
2019-04-28T06:07:45.236Z,1008.48
2019-04-28T06:08:45.406Z,1008.47
2019-04-28T06:09:45.774Z,1008.42
2019-04-28T06:10:45.790Z,1008.41
2019-04-28T06:11:46.172Z,1008.40
2019-04-28T06:12:46.529Z,1008.41
2019-04-28T06:13:46.785Z,1008.42
2019-04-28T06:14:47.131Z,1008.41
2019-04-28T06:15:47.388Z,1008.41
2019-04-28T06:16:47.858Z,1008.47
2019-04-28T06:17:49.787Z,1008.43
2019-04-28T06:18:50.077Z,1008.43
2019-04-28T06:19:50.418Z,1008.41
2019-04-28T06:20:49.770Z,1008.51
2019-04-28T06:21:49.055Z,1008.51
2019-04-28T06:22:49.585Z,1008.52
2019-04-28T06:23:49.421Z,1008.52
2019-04-28T06:24:49.855Z,1008.52
2019-04-28T06:25:50.380Z,1008.55
2019-04-28T06:26:50.440Z,1008.49
2019-04-28T06:27:50.195Z,1008.56
2019-04-28T06:28:50.669Z,1008.50
2019-04-28T06:30:50.930Z,1008.49
2019-04-28T06:31:51.260Z,1008.47
2019-04-28T06:32:51.544Z,1008.48
2019-04-28T06:33:51.729Z,1008.49
2019-04-28T06:34:52.184Z,1008.53
2019-04-28T06:35:52.517Z,1008.60
2019-04-28T06:36:52.801Z,1008.57
2019-04-28T06:37:53.065Z,1008.50
2019-04-28T06:38:53.332Z,1008.64
2019-04-28T06:39:53.798Z,1008.62
2019-04-28T06:40:54.301Z,1008.60
2019-04-28T06:41:54.095Z,1008.67
2019-04-28T06:42:54.469Z,1008.62
2019-04-28T06:43:55.040Z,1008.68
2019-04-28T06:44:55.163Z,1008.69
2019-04-28T06:45:54.914Z,1008.61
2019-04-28T06:46:55.401Z,1008.67
2019-04-28T06:47:55.805Z,1008.58
2019-04-28T06:48:56.149Z,1008.73
2019-04-28T06:49:56.444Z,1008.61
2019-04-28T06:50:56.803Z,1008.62
2019-04-28T06:51:57.160Z,1008.74
2019-04-28T06:52:57.486Z,1008.65
2019-04-28T06:53:57.746Z,1008.71
2019-04-28T06:54:58.147Z,1008.71
2019-04-28T06:55:58.177Z,1008.77
2019-04-28T06:56:58.647Z,1008.69
2019-04-28T06:57:58.610Z,1008.73
2019-04-28T06:58:59.527Z,1008.70
2019-04-28T06:59:59.193Z,1008.70
2019-04-28T07:00:59.637Z,1008.67
2019-04-28T07:01:59.907Z,1008.69
2019-04-28T07:03:00.288Z,1008.77
2019-04-28T07:04:00.903Z,1008.78
2019-04-28T07:05:02.356Z,1008.73
2019-04-28T07:07:01.559Z,1008.78
2019-04-28T07:08:01.719Z,1008.81
2019-04-28T07:09:02.050Z,1008.79
2019-04-28T07:10:02.282Z,1008.79
2019-04-28T07:11:02.391Z,1008.73
2019-04-28T07:12:02.425Z,1008.78
2019-04-28T07:13:02.432Z,1008.79
2019-04-28T07:14:02.357Z,1008.73
2019-04-28T07:15:02.817Z,1008.86
2019-04-28T07:16:03.361Z,1008.84
2019-04-28T07:17:06.114Z,1008.84
2019-04-28T07:18:03.683Z,1008.74
2019-04-28T07:19:03.762Z,1008.77
2019-04-28T07:20:03.873Z,1008.68
2019-04-28T07:21:04.102Z,1008.74
2019-04-28T07:22:04.395Z,1008.74
2019-04-28T07:23:04.385Z,1008.80
2019-04-28T07:24:04.188Z,1008.71
2019-04-28T07:25:04.730Z,1008.73
2019-04-28T07:26:04.551Z,1008.64
2019-04-28T07:27:05.011Z,1008.75
2019-04-28T07:28:05.473Z,1008.73
2019-04-28T07:29:06.337Z,1008.78
2019-04-28T07:30:06.592Z,1008.68
2019-04-28T07:31:06.654Z,1008.70
2019-04-28T07:32:06.686Z,1008.84
2019-04-28T07:33:06.588Z,1008.68
2019-04-28T07:34:07.049Z,1008.73
2019-04-28T07:35:07.364Z,1008.69
2019-04-28T07:36:07.825Z,1008.71
2019-04-28T07:37:08.090Z,1008.69
2019-04-28T07:38:08.447Z,1008.74
2019-04-28T07:39:08.687Z,1008.81
2019-04-28T07:40:08.950Z,1008.80
2019-04-28T07:41:09.447Z,1008.79
2019-04-28T07:42:09.938Z,1008.86
2019-04-28T07:43:10.180Z,1008.72
2019-04-28T07:44:10.553Z,1008.69
2019-04-28T07:45:10.701Z,1008.78
2019-04-28T07:46:10.958Z,1008.77
2019-04-28T07:47:11.209Z,1008.76
2019-04-28T07:48:11.562Z,1008.79
2019-04-28T07:49:11.874Z,1008.70
2019-04-28T07:50:12.159Z,1008.79
2019-04-28T07:51:12.494Z,1008.80
2019-04-28T07:52:13.005Z,1008.83
2019-04-28T07:53:12.977Z,1008.72
2019-04-28T07:54:13.466Z,1008.84
2019-04-28T07:55:14.161Z,1008.93
2019-04-28T07:56:14.107Z,1008.91
2019-04-28T07:57:14.342Z,1008.82
2019-04-28T07:58:14.787Z,1008.92
2019-04-28T07:59:15.179Z,1008.88
2019-04-28T08:00:15.737Z,1008.90
2019-04-28T08:01:16.036Z,1008.91
2019-04-28T08:02:15.804Z,1008.92
2019-04-28T08:03:16.057Z,1008.95
2019-04-28T08:04:16.327Z,1008.98
2019-04-28T08:05:16.628Z,1008.93
2019-04-28T08:06:16.949Z,1009.06
2019-04-28T08:07:17.265Z,1008.93
2019-04-28T08:08:17.652Z,1008.95
2019-04-28T08:09:17.914Z,1009.00
2019-04-28T08:10:18.179Z,1008.94
2019-04-28T08:11:18.521Z,1008.98
2019-04-28T08:12:18.791Z,1008.96
2019-04-28T08:13:19.076Z,1009.07
2019-04-28T08:14:19.779Z,1009.01
2019-04-28T08:15:19.598Z,1009.03
2019-04-28T08:16:19.892Z,1008.99
2019-04-28T08:17:20.161Z,1009.01
2019-04-28T08:18:20.462Z,1009.08
2019-04-28T08:19:26.942Z,1009.06
2019-04-28T08:20:21.198Z,1008.97
2019-04-28T08:21:21.569Z,1008.95
2019-04-28T08:22:21.859Z,1009.05
2019-04-28T08:23:22.099Z,1009.04
2019-04-28T08:24:22.145Z,1009.10
2019-04-28T08:25:22.444Z,1009.06
2019-04-28T08:26:22.728Z,1009.05
2019-04-28T08:27:23.259Z,1009.06
2019-04-28T08:28:22.998Z,1009.07
2019-04-28T08:29:23.262Z,1009.13
2019-04-28T08:30:23.517Z,1009.14
2019-04-28T08:31:23.836Z,1009.14
2019-04-28T08:32:24.249Z,1009.02
2019-04-28T08:33:24.907Z,1009.02
2019-04-28T08:34:24.787Z,1009.04
2019-04-28T08:35:25.227Z,1009.09
2019-04-28T08:36:25.710Z,1009.07
2019-04-28T08:37:25.986Z,1009.12
2019-04-28T08:38:26.284Z,1009.11
2019-04-28T08:39:26.939Z,1009.08
2019-04-28T08:40:26.972Z,1009.17
2019-04-28T08:41:27.282Z,1009.19
2019-04-28T08:42:27.777Z,1009.07
2019-04-28T08:43:27.681Z,1009.12
2019-04-28T08:44:27.941Z,1009.13
2019-04-28T08:45:28.302Z,1009.13
2019-04-28T08:46:28.738Z,1009.15
2019-04-28T08:47:29.193Z,1009.01
2019-04-28T08:48:29.496Z,1009.08
2019-04-28T08:49:29.746Z,1009.12
2019-04-28T08:50:30.012Z,1009.05
2019-04-28T08:51:30.305Z,1009.06
2019-04-28T08:52:30.726Z,1009.09
2019-04-28T08:53:33.784Z,1009.06
2019-04-28T08:54:31.035Z,1009.00
2019-04-28T08:55:31.274Z,1009.09
2019-04-28T08:56:31.811Z,1009.09
2019-04-28T08:57:32.069Z,1009.03
2019-04-28T08:58:32.336Z,1009.06
2019-04-28T08:59:32.585Z,1009.11
2019-04-28T09:00:32.862Z,1009.06
2019-04-28T09:01:33.174Z,1009.03
2019-04-28T09:02:33.757Z,1009.20
2019-04-28T09:03:33.742Z,1009.09
2019-04-28T09:04:34.015Z,1009.10
2019-04-28T09:05:34.447Z,1009.12
2019-04-28T09:06:34.947Z,1009.10
2019-04-28T09:07:34.835Z,1009.14
2019-04-28T09:08:35.094Z,1009.20
2019-04-28T09:09:35.607Z,1009.15
2019-04-28T09:10:35.460Z,1009.14
2019-04-28T09:11:36.025Z,1009.13
2019-04-28T09:12:36.479Z,1009.20
2019-04-28T09:13:36.299Z,1009.21
2019-04-28T09:14:36.970Z,1009.22
2019-04-28T09:15:36.813Z,1009.18
2019-04-28T09:16:37.162Z,1009.21
2019-04-28T09:17:37.482Z,1009.23
2019-04-28T09:18:37.731Z,1009.25
2019-04-28T09:19:37.988Z,1009.22
2019-04-28T09:20:38.243Z,1009.18
2019-04-28T09:21:38.614Z,1009.18
2019-04-28T09:22:38.909Z,1009.11
2019-04-28T09:23:39.155Z,1009.15
2019-04-28T09:25:39.473Z,1009.17
2019-04-28T09:26:39.866Z,1009.17
2019-04-28T09:27:40.322Z,1009.16
2019-04-28T09:28:40.844Z,1009.22
2019-04-28T09:29:40.960Z,1009.15
2019-04-28T09:30:40.706Z,1009.26
2019-04-28T09:31:41.039Z,1009.24
2019-04-28T09:32:41.581Z,1009.21
2019-04-28T09:33:41.507Z,1009.25
2019-04-28T09:34:42.008Z,1009.14
2019-04-28T09:35:42.146Z,1009.24
2019-04-28T09:36:41.881Z,1009.18
2019-04-28T09:37:42.260Z,1009.23
2019-04-28T09:38:42.471Z,1009.21
2019-04-28T09:39:42.684Z,1009.23
2019-04-28T09:40:42.660Z,1009.25
2019-04-28T09:41:42.924Z,1009.21
2019-04-28T09:42:43.188Z,1009.23
2019-04-28T09:43:43.728Z,1009.19
2019-04-28T09:44:43.890Z,1009.18
2019-04-28T09:45:43.887Z,1009.20
2019-04-28T09:46:44.031Z,1009.14
2019-04-28T09:47:44.157Z,1009.10
2019-04-28T09:48:44.395Z,1009.05
2019-04-28T09:49:44.649Z,1009.15
2019-04-28T09:50:44.914Z,1009.13
2019-04-28T09:51:45.180Z,1009.11
2019-04-28T09:52:48.520Z,1009.10
2019-04-28T09:53:45.452Z,1009.06
2019-04-28T09:54:45.749Z,1009.07
2019-04-28T09:55:46.366Z,1009.14
2019-04-28T09:56:56.487Z,1009.08
2019-04-28T09:57:46.892Z,1009.14
2019-04-28T09:58:47.182Z,1009.16
2019-04-28T09:59:47.520Z,1009.06
2019-04-28T10:00:47.795Z,1009.07
2019-04-28T10:01:48.085Z,1009.07
2019-04-28T10:02:48.628Z,1009.09
2019-04-28T10:03:48.536Z,1009.10
2019-04-28T10:04:48.987Z,1009.03
2019-04-28T10:05:49.218Z,1009.11
2019-04-28T10:06:49.499Z,1008.99
2019-04-28T10:07:49.783Z,1009.02
2019-04-28T10:08:53.016Z,1008.95
2019-04-28T10:09:50.501Z,1008.93
2019-04-28T10:10:51.034Z,1008.97
2019-04-28T10:12:50.850Z,1008.94
2019-04-28T10:13:50.853Z,1008.95
2019-04-28T10:14:51.325Z,1008.96
2019-04-28T10:15:51.879Z,1008.98
2019-04-28T10:16:51.905Z,1008.92
2019-04-28T10:17:51.927Z,1008.91
2019-04-28T10:18:51.951Z,1008.97
2019-04-28T10:19:51.966Z,1008.95
2019-04-28T10:21:51.980Z,1008.99
2019-04-28T10:22:51.743Z,1008.93
2019-04-28T10:23:51.994Z,1008.94
2019-04-28T10:24:52.285Z,1008.91
2019-04-28T10:25:52.717Z,1008.92
2019-04-28T10:26:52.991Z,1008.98
2019-04-28T10:27:53.245Z,1009.00
2019-04-28T10:28:53.561Z,1008.93
2019-04-28T10:29:53.844Z,1008.96
2019-04-28T10:30:54.196Z,1008.99
2019-04-28T10:31:54.548Z,1009.02
2019-04-28T10:32:54.832Z,1008.92
2019-04-28T10:33:55.074Z,1008.90
2019-04-28T10:34:55.461Z,1009.00
2019-04-28T10:35:55.261Z,1008.92
2019-04-28T10:36:55.538Z,1009.03
2019-04-28T10:37:55.959Z,1009.04
2019-04-28T10:38:56.190Z,1008.96
2019-04-28T10:39:57.020Z,1009.01
2019-04-28T10:40:56.798Z,1008.97
2019-04-28T10:41:57.092Z,1008.91
2019-04-28T10:42:57.458Z,1009.00
2019-04-28T10:43:57.956Z,1009.01
2019-04-28T10:44:57.941Z,1008.98
2019-04-28T10:45:57.943Z,1009.05
2019-04-28T10:46:58.554Z,1008.98
2019-04-28T10:47:58.681Z,1008.96
2019-04-28T10:48:58.450Z,1009.00
2019-04-28T10:49:58.990Z,1009.05
2019-04-28T10:51:01.165Z,1008.98
2019-04-28T10:51:59.865Z,1009.03
2019-04-28T10:52:59.558Z,1008.97
2019-04-28T10:53:59.959Z,1008.93
2019-04-28T10:55:00.291Z,1008.99
2019-04-28T10:56:00.851Z,1009.01
2019-04-28T10:57:00.673Z,1008.99
2019-04-28T10:58:01.262Z,1008.96
2019-04-28T10:59:01.537Z,1008.96
2019-04-28T11:00:01.559Z,1008.96
2019-04-28T11:01:02.021Z,1008.90
2019-04-28T11:02:02.056Z,1008.93
2019-04-28T11:03:02.172Z,1008.93
2019-04-28T11:04:02.186Z,1008.91
2019-04-28T11:05:08.431Z,1008.91
2019-04-28T11:06:03.007Z,1008.96
2019-04-28T11:07:03.089Z,1008.90
2019-04-28T11:08:02.873Z,1008.94
2019-04-28T11:09:03.287Z,1008.90
2019-04-28T11:10:03.551Z,1008.91
2019-04-28T11:11:03.755Z,1008.92
2019-04-28T11:12:03.971Z,1008.90
2019-04-28T11:13:04.321Z,1008.90
2019-04-28T11:14:04.282Z,1008.93
2019-04-28T11:15:04.906Z,1008.96
2019-04-28T11:16:04.886Z,1008.96
2019-04-28T11:17:05.297Z,1008.95
2019-04-28T11:18:05.552Z,1008.93
2019-04-28T11:19:05.565Z,1008.92
2019-04-28T11:20:05.955Z,1008.90
2019-04-28T11:21:06.190Z,1008.95
2019-04-28T11:22:06.524Z,1008.90
2019-04-28T11:23:07.267Z,1008.91
2019-04-28T11:24:07.152Z,1008.92
2019-04-28T11:25:07.548Z,1008.95
2019-04-28T11:26:07.939Z,1008.93
2019-04-28T11:27:07.929Z,1008.89
2019-04-28T11:28:08.376Z,1008.93
2019-04-28T11:29:08.354Z,1008.95
2019-04-28T11:30:08.604Z,1009.03
2019-04-28T11:31:09.026Z,1008.97
2019-04-28T11:32:09.516Z,1008.99
2019-04-28T11:33:09.767Z,1008.98
2019-04-28T11:34:10.037Z,1008.91
2019-04-28T11:35:20.959Z,1008.95
2019-04-28T11:36:10.775Z,1009.04
2019-04-28T11:37:10.868Z,1008.93
2019-04-28T11:38:11.166Z,1008.82
2019-04-28T11:39:11.487Z,1008.86
2019-04-28T11:40:11.672Z,1008.94
2019-04-28T11:41:12.060Z,1008.88
2019-04-28T11:42:12.441Z,1008.88
2019-04-28T11:43:12.591Z,1008.88
2019-04-28T11:44:12.899Z,1008.95
2019-04-28T11:45:12.995Z,1008.87
2019-04-28T11:46:13.005Z,1008.87
2019-04-28T11:47:13.222Z,1008.89
2019-04-28T11:48:13.547Z,1008.90
2019-04-28T11:49:14.041Z,1008.89
2019-04-28T11:50:14.527Z,1008.86
2019-04-28T11:51:14.358Z,1008.86
2019-04-28T11:52:14.625Z,1008.87
2019-04-28T11:53:14.883Z,1008.84
2019-04-28T11:54:15.111Z,1008.88
2019-04-28T11:55:15.739Z,1008.95
2019-04-28T11:56:15.832Z,1008.90
2019-04-28T11:57:20.759Z,1008.91
2019-04-28T11:58:16.100Z,1008.87
2019-04-28T11:59:16.364Z,1008.91
2019-04-28T12:00:17.379Z,1008.87
2019-04-28T12:01:16.935Z,1008.86
2019-04-28T12:02:16.973Z,1008.87
2019-04-28T12:03:16.909Z,1008.92
2019-04-28T12:04:17.469Z,1008.84
2019-04-28T12:05:17.962Z,1008.93
2019-04-28T12:06:18.095Z,1008.84
2019-04-28T12:07:18.115Z,1008.88
2019-04-28T12:08:18.126Z,1008.85
2019-04-28T12:09:18.203Z,1008.90
2019-04-28T12:10:18.129Z,1008.85
2019-04-28T12:11:18.263Z,1008.83
2019-04-28T12:12:18.627Z,1008.85
2019-04-28T12:13:19.030Z,1008.89
2019-04-28T12:15:19.062Z,1008.78
2019-04-28T12:16:19.485Z,1008.87
2019-04-28T12:17:19.585Z,1008.87
2019-04-28T12:18:20.184Z,1008.88
2019-04-28T12:19:20.304Z,1008.84
2019-04-28T12:20:20.715Z,1008.82